createdAt,value
2023-04-18T00:00:49.459Z,100.00
2023-04-18T00:03:18.434Z,100.00
2023-04-18T00:05:48.321Z,100.00
2023-04-18T00:08:17.645Z,100.00
2023-04-18T00:10:46.645Z,100.00
2023-04-18T00:13:18.466Z,100.00
2023-04-18T00:15:48.796Z,100.00
2023-04-18T00:18:17.591Z,100.00
2023-04-18T00:20:47.050Z,100.00
2023-04-18T00:23:16.428Z,100.00
2023-04-18T00:25:45.566Z,100.00
2023-04-18T00:28:14.414Z,100.00
2023-04-18T00:30:43.346Z,100.00
2023-04-18T00:33:13.650Z,100.00
2023-04-18T00:35:42.496Z,100.00
2023-04-18T00:38:11.517Z,100.00
2023-04-18T00:40:42.576Z,100.00
2023-04-18T00:43:14.762Z,100.00
2023-04-18T00:45:43.783Z,100.00
2023-04-18T00:48:14.229Z,100.00
2023-04-18T00:50:43.120Z,100.00
2023-04-18T00:53:12.218Z,100.00
2023-04-18T00:55:41.588Z,100.00
2023-04-18T00:58:10.603Z,100.00
2023-04-18T01:00:39.470Z,100.00
2023-04-18T01:03:10.843Z,100.00
2023-04-18T01:05:41.677Z,100.00
2023-04-18T01:08:10.837Z,100.00
2023-04-18T01:10:40.376Z,100.00
2023-04-18T01:13:17.528Z,100.00
2023-04-18T01:15:48.207Z,100.00
2023-04-18T01:18:19.258Z,100.00
2023-04-18T01:20:51.222Z,100.00
2023-04-18T01:23:22.464Z,100.00
2023-04-18T01:25:52.843Z,100.00
2023-04-18T01:28:22.983Z,100.00
2023-04-18T01:30:52.095Z,100.00
2023-04-18T01:33:21.099Z,100.00
2023-04-18T01:35:50.131Z,100.00
2023-04-18T01:38:18.928Z,100.00
2023-04-18T01:40:48.036Z,100.00
2023-04-18T01:43:18.566Z,100.00
2023-04-18T01:45:47.479Z,100.00
2023-04-18T01:48:16.333Z,100.00
2023-04-18T01:50:45.239Z,100.00
2023-04-18T01:53:14.084Z,100.00
2023-04-18T01:55:46.052Z,100.00
2023-04-18T01:58:15.812Z,100.00
2023-04-18T02:00:46.079Z,100.00
2023-04-18T02:03:15.031Z,100.00
2023-04-18T02:05:44.024Z,100.00
2023-04-18T02:08:12.878Z,100.00
2023-04-18T02:10:41.872Z,100.00
2023-04-18T02:13:11.414Z,100.00
2023-04-18T02:15:40.343Z,100.00
2023-04-18T02:18:11.647Z,100.00
2023-04-18T02:20:41.899Z,100.00
2023-04-18T02:23:10.929Z,100.00
2023-04-18T02:25:39.767Z,100.00
2023-04-18T02:28:08.634Z,100.00
2023-04-18T02:30:37.516Z,100.00
2023-04-18T02:33:06.555Z,100.00
2023-04-18T02:35:38.406Z,100.00
2023-04-18T02:38:07.355Z,100.00
2023-04-18T02:40:36.281Z,100.00
2023-04-18T02:43:05.168Z,100.00
2023-04-18T02:45:34.078Z,100.00
2023-04-18T02:48:03.818Z,100.00
2023-04-18T02:50:35.536Z,100.00
2023-04-18T02:53:06.138Z,100.00
2023-04-18T02:55:48.489Z,100.00
2023-04-18T02:58:18.582Z,100.00
2023-04-18T03:01:17.077Z,100.00
2023-04-18T03:03:59.641Z,100.00
2023-04-18T03:06:38.701Z,100.00
2023-04-18T03:09:09.631Z,100.00
2023-04-18T03:11:44.165Z,100.00
2023-04-18T03:14:13.910Z,100.00
2023-04-18T03:16:51.778Z,100.00
2023-04-18T03:19:25.272Z,100.00
2023-04-18T03:21:56.158Z,100.00
2023-04-18T03:24:26.454Z,100.00
2023-04-18T03:26:59.786Z,100.00
2023-04-18T03:29:29.029Z,100.00
2023-04-18T03:31:58.306Z,100.00
2023-04-18T03:34:27.299Z,100.00
2023-04-18T03:36:56.952Z,100.00
2023-04-18T03:39:28.489Z,100.00
2023-04-18T03:41:58.139Z,100.00
2023-04-18T03:44:27.032Z,100.00
2023-04-18T03:46:56.062Z,100.00
2023-04-18T03:49:27.179Z,100.00
2023-04-18T03:51:56.235Z,100.00
2023-04-18T03:54:26.377Z,100.00
2023-04-18T03:56:57.671Z,100.00
2023-04-18T03:59:26.828Z,100.00
2023-04-18T04:01:57.058Z,100.00
2023-04-18T04:04:26.336Z,100.00
2023-04-18T04:06:55.936Z,100.00
2023-04-18T04:09:24.885Z,100.00
2023-04-18T04:11:53.831Z,100.00
2023-04-18T04:14:24.733Z,100.00
2023-04-18T04:16:55.463Z,100.00
2023-04-18T04:19:24.933Z,100.00
2023-04-18T04:22:07.556Z,100.00
2023-04-18T04:24:38.482Z,100.00
2023-04-18T04:27:08.366Z,100.00
2023-04-18T04:29:41.355Z,100.00
2023-04-18T04:32:10.368Z,100.00
2023-04-18T04:34:41.502Z,100.00
2023-04-18T04:37:14.125Z,100.00
2023-04-18T04:39:56.616Z,100.00
2023-04-18T04:43:00.560Z,100.00
2023-04-18T04:45:39.614Z,100.00
2023-04-18T04:48:08.938Z,100.00
2023-04-18T04:50:39.881Z,100.00
2023-04-18T04:53:08.787Z,100.00
2023-04-18T04:55:38.624Z,100.00
2023-04-18T04:58:07.648Z,100.00
2023-04-18T05:00:48.292Z,100.00
2023-04-18T05:03:17.367Z,100.00
2023-04-18T05:05:46.817Z,100.00
2023-04-18T05:08:15.759Z,100.00
2023-04-18T05:10:45.973Z,100.00
2023-04-18T05:13:14.843Z,100.00
2023-04-18T05:15:43.714Z,100.00
2023-04-18T05:18:14.492Z,100.00
2023-04-18T05:20:43.346Z,100.00
2023-04-18T05:23:12.201Z,100.00
2023-04-18T05:25:41.049Z,100.00
2023-04-18T05:28:09.925Z,100.00
2023-04-18T05:30:38.851Z,100.00
2023-04-18T05:33:07.860Z,100.00
2023-04-18T05:35:38.447Z,100.00
2023-04-18T05:38:07.265Z,100.00
2023-04-18T05:40:36.151Z,100.00
2023-04-18T05:43:04.993Z,100.00
2023-04-18T05:45:33.855Z,100.00
2023-04-18T05:48:03.327Z,100.00
2023-04-18T05:50:32.133Z,100.00
2023-04-18T05:53:02.612Z,100.00
2023-04-18T05:55:31.449Z,100.00
2023-04-18T05:58:00.355Z,100.00
2023-04-18T06:00:29.695Z,100.00
2023-04-18T06:02:58.600Z,100.00
2023-04-18T06:05:28.063Z,100.00
2023-04-18T06:07:57.191Z,100.00
2023-04-18T06:10:27.482Z,100.00
2023-04-18T06:12:56.289Z,100.00
2023-04-18T06:15:25.144Z,100.00
2023-04-18T06:17:53.988Z,100.00
2023-04-18T06:20:23.220Z,100.00
2023-04-18T06:22:52.064Z,100.00
2023-04-18T06:25:21.531Z,100.00
2023-04-18T06:27:51.754Z,100.00
2023-04-18T06:30:22.110Z,100.00
2023-04-18T06:32:51.147Z,100.00
2023-04-18T06:35:20.107Z,100.00
2023-04-18T06:37:49.020Z,100.00
2023-04-18T06:40:18.139Z,100.00
2023-04-18T06:42:46.993Z,100.00
2023-04-18T06:45:17.396Z,100.00
2023-04-18T06:47:47.714Z,100.00
2023-04-18T06:50:16.694Z,100.00
2023-04-18T06:52:45.786Z,100.00
2023-04-18T06:55:15.199Z,100.00
2023-04-18T06:57:44.420Z,100.00
2023-04-18T07:00:14.153Z,100.00
2023-04-18T07:02:44.569Z,100.00
2023-04-18T07:05:13.599Z,94.17
2023-04-18T07:07:42.512Z,100.00
2023-04-18T07:10:12.596Z,100.00
2023-04-18T07:12:41.450Z,100.00
2023-04-18T07:15:11.573Z,93.38
2023-04-18T07:17:40.405Z,92.96
2023-04-18T07:20:13.070Z,100.00
2023-04-18T07:22:43.316Z,97.97
2023-04-18T07:25:12.165Z,99.98
2023-04-18T07:27:41.164Z,100.00
2023-04-18T07:30:11.301Z,95.85
2023-04-18T07:32:40.268Z,100.00
2023-04-18T07:35:11.579Z,100.00
2023-04-18T07:37:40.688Z,93.24
2023-04-18T07:40:10.897Z,97.60
2023-04-18T07:42:39.736Z,94.35
2023-04-18T07:45:09.052Z,91.50
2023-04-18T07:47:37.930Z,95.97
2023-04-18T07:50:08.553Z,85.20
2023-04-18T07:52:39.520Z,87.51
2023-04-18T07:55:09.467Z,83.44
2023-04-18T07:57:38.472Z,91.95
2023-04-18T08:00:09.350Z,92.39
2023-04-18T08:02:44.259Z,100.00
2023-04-18T08:05:13.343Z,100.00
2023-04-18T08:07:43.729Z,100.00
2023-04-18T08:10:12.772Z,97.84
2023-04-18T08:12:41.863Z,99.92
2023-04-18T08:15:11.405Z,100.00
2023-04-18T08:17:42.742Z,100.00
2023-04-18T08:20:13.091Z,96.60
2023-04-18T08:22:57.660Z,99.48
2023-04-18T08:25:33.254Z,93.64
2023-04-18T08:28:02.091Z,100.00
2023-04-18T08:30:31.266Z,100.00
2023-04-18T08:33:00.654Z,100.00
2023-04-18T08:35:30.135Z,100.00
2023-04-18T08:38:00.657Z,100.00
2023-04-18T08:40:30.445Z,100.00
2023-04-18T08:43:04.956Z,100.00
2023-04-18T08:45:34.458Z,100.00
2023-04-18T08:48:04.100Z,100.00
2023-04-18T08:50:33.402Z,100.00
2023-04-18T08:53:03.741Z,100.00
2023-04-18T08:55:33.692Z,96.29
2023-04-18T08:58:03.410Z,90.89
2023-04-18T09:00:32.777Z,84.33
2023-04-18T09:03:03.108Z,83.80
2023-04-18T09:05:32.066Z,86.29
2023-04-18T09:08:21.512Z,85.00
2023-04-18T09:10:51.849Z,80.48
2023-04-18T09:13:39.491Z,80.23
2023-04-18T09:16:08.451Z,80.09
2023-04-18T09:18:38.369Z,76.62
2023-04-18T09:21:19.504Z,65.96
2023-04-18T09:23:50.392Z,61.87
2023-04-18T09:26:34.904Z,60.40
2023-04-18T09:29:03.834Z,61.35
2023-04-18T09:31:32.848Z,60.55
2023-04-18T09:34:03.088Z,63.70
2023-04-18T09:36:32.410Z,63.34
2023-04-18T09:39:02.080Z,67.58
2023-04-18T09:41:32.808Z,67.82
2023-04-18T09:44:14.450Z,67.16
2023-04-18T09:46:47.106Z,67.01
2023-04-18T09:49:17.429Z,68.34
2023-04-18T09:51:46.899Z,67.56
2023-04-18T09:54:17.049Z,64.20
2023-04-18T09:56:50.352Z,64.38
2023-04-18T09:59:34.398Z,69.92
2023-04-18T10:02:08.247Z,69.57
2023-04-18T10:04:37.568Z,71.85
2023-04-18T10:07:07.132Z,71.12
2023-04-18T10:09:36.820Z,70.61
2023-04-18T10:12:07.422Z,71.66
2023-04-18T10:14:38.453Z,72.67
2023-04-18T10:17:07.468Z,70.91
2023-04-18T10:19:36.469Z,69.55
2023-04-18T10:22:05.394Z,75.22
2023-04-18T10:24:53.108Z,74.58
2023-04-18T10:27:58.176Z,65.52
2023-04-18T10:30:53.523Z,59.24
2023-04-18T10:33:31.962Z,67.92
2023-04-18T10:36:06.253Z,66.16
2023-04-18T10:38:35.675Z,65.68
2023-04-18T10:41:22.418Z,65.05
2023-04-18T10:44:24.219Z,68.78
2023-04-18T10:47:22.606Z,73.89
2023-04-18T10:49:57.506Z,75.28
2023-04-18T10:52:26.419Z,73.59
2023-04-18T10:55:12.840Z,81.33
2023-04-18T10:57:43.540Z,76.86
2023-04-18T11:00:16.142Z,79.43
2023-04-18T11:02:53.793Z,84.20
2023-04-18T11:05:25.237Z,97.33
2023-04-18T11:07:54.676Z,100.00
2023-04-18T11:10:25.639Z,100.00
2023-04-18T11:12:55.585Z,100.00
2023-04-18T11:15:28.598Z,100.00
2023-04-18T11:18:00.897Z,100.00
2023-04-18T11:20:30.419Z,100.00
2023-04-18T11:23:00.579Z,100.00
2023-04-18T11:25:32.004Z,100.00
2023-04-18T11:28:02.488Z,100.00
2023-04-18T11:30:40.055Z,100.00
2023-04-18T11:33:09.433Z,100.00
2023-04-18T11:35:39.773Z,100.00
2023-04-18T11:38:10.320Z,100.00
2023-04-18T11:40:39.310Z,100.00
2023-04-18T11:43:08.712Z,100.00
2023-04-18T11:45:39.074Z,100.00
2023-04-18T11:48:07.996Z,100.00
2023-04-18T11:50:38.260Z,100.00
2023-04-18T11:53:07.063Z,100.00
2023-04-18T11:55:35.848Z,100.00
2023-04-18T11:58:04.754Z,100.00
2023-04-18T12:00:35.607Z,92.98
2023-04-18T12:03:07.858Z,95.79
2023-04-18T12:05:39.432Z,98.87
2023-04-18T12:08:11.400Z,100.00
2023-04-18T12:10:47.457Z,98.39
2023-04-18T12:13:16.341Z,100.00
2023-04-18T12:15:46.791Z,100.00
2023-04-18T12:18:19.753Z,100.00
2023-04-18T12:20:51.570Z,100.00
2023-04-18T12:23:35.422Z,100.00
2023-04-18T12:26:05.892Z,100.00
2023-04-18T12:28:37.220Z,100.00
2023-04-18T12:31:07.469Z,100.00
2023-04-18T12:33:37.879Z,100.00
2023-04-18T12:36:08.561Z,100.00
2023-04-18T12:38:37.420Z,100.00
2023-04-18T12:41:06.618Z,100.00
2023-04-18T12:43:35.431Z,100.00
2023-04-18T12:46:04.287Z,100.00
2023-04-18T12:48:33.118Z,100.00
2023-04-18T12:51:03.356Z,100.00
2023-04-18T12:53:32.151Z,100.00
2023-04-18T12:56:01.036Z,100.00
2023-04-18T12:58:29.979Z,100.00
2023-04-18T13:00:59.107Z,100.00
2023-04-18T13:03:28.487Z,100.00
2023-04-18T13:05:57.576Z,100.00
2023-04-18T13:08:27.827Z,100.00
2023-04-18T13:10:56.766Z,100.00
2023-04-18T13:13:25.741Z,100.00
2023-04-18T13:15:54.673Z,100.00
2023-04-18T13:18:23.481Z,100.00
2023-04-18T13:20:52.664Z,100.00
2023-04-18T13:23:21.509Z,100.00
2023-04-18T13:25:51.911Z,100.00
2023-04-18T13:28:20.841Z,100.00
2023-04-18T13:30:49.620Z,100.00
2023-04-18T13:33:18.641Z,98.15
2023-04-18T13:35:47.484Z,100.00
2023-04-18T13:38:16.406Z,80.66
2023-04-18T13:40:45.500Z,92.03
2023-04-18T13:43:15.717Z,90.02
2023-04-18T13:45:44.502Z,89.45
2023-04-18T13:48:15.708Z,87.10
2023-04-18T13:50:45.111Z,87.64
2023-04-18T13:53:16.273Z,78.13
2023-04-18T13:55:45.266Z,83.36
2023-04-18T13:58:15.778Z,80.47
2023-04-18T14:00:44.606Z,78.35
2023-04-18T14:03:13.519Z,78.38
2023-04-18T14:05:42.473Z,82.83
2023-04-18T14:08:11.414Z,76.75
2023-04-18T14:10:40.459Z,79.02
2023-04-18T14:13:09.378Z,81.92
2023-04-18T14:15:39.666Z,75.58
2023-04-18T14:18:08.673Z,80.53
2023-04-18T14:20:37.678Z,82.86
2023-04-18T14:23:06.501Z,82.50
2023-04-18T14:25:35.350Z,91.45
2023-04-18T14:28:09.509Z,93.75
2023-04-18T14:30:41.288Z,91.95
2023-04-18T14:33:10.497Z,98.04
2023-04-18T14:35:40.104Z,90.80
2023-04-18T14:38:08.921Z,90.66
2023-04-18T14:40:37.945Z,86.62
2023-04-18T14:43:06.856Z,86.03
2023-04-18T14:45:36.000Z,84.09
2023-04-18T14:48:08.809Z,82.73
2023-04-18T14:50:39.314Z,81.55
2023-04-18T14:53:08.925Z,76.93
2023-04-18T14:55:37.971Z,74.51
2023-04-18T14:58:06.853Z,70.07
2023-04-18T15:00:35.720Z,66.31
2023-04-18T15:03:07.163Z,64.61
2023-04-18T15:05:42.813Z,61.05
2023-04-18T15:08:12.008Z,62.90
2023-04-18T15:10:42.388Z,66.24
2023-04-18T15:13:11.594Z,68.98
2023-04-18T15:15:41.071Z,65.46
2023-04-18T15:18:13.816Z,71.10
2023-04-18T15:20:42.692Z,75.76
2023-04-18T15:23:13.776Z,76.67
2023-04-18T15:25:43.233Z,78.74
2023-04-18T15:28:13.399Z,79.49
2023-04-18T15:30:42.247Z,75.61
2023-04-18T15:33:13.623Z,76.26
2023-04-18T15:35:42.524Z,74.11
2023-04-18T15:38:11.690Z,76.84
2023-04-18T15:40:40.916Z,71.92
2023-04-18T15:43:09.730Z,67.14
2023-04-18T15:45:38.582Z,69.62
2023-04-18T15:48:07.893Z,71.89
2023-04-18T15:50:38.213Z,69.30
2023-04-18T15:53:07.087Z,68.46
2023-04-18T15:55:35.965Z,68.59
2023-04-18T15:58:05.134Z,70.16
2023-04-18T16:00:33.989Z,74.56
2023-04-18T16:03:02.873Z,77.03
2023-04-18T16:05:31.943Z,76.16
2023-04-18T16:08:02.560Z,75.78
2023-04-18T16:10:31.469Z,73.39
2023-04-18T16:13:00.624Z,78.16
2023-04-18T16:15:31.496Z,79.93
2023-04-18T16:18:00.356Z,75.72
2023-04-18T16:20:29.671Z,81.62
2023-04-18T16:22:58.842Z,83.32
2023-04-18T16:25:29.184Z,83.85
2023-04-18T16:27:58.064Z,85.78
2023-04-18T16:30:26.886Z,85.38
2023-04-18T16:32:55.790Z,84.93
2023-04-18T16:35:24.912Z,82.93
2023-04-18T16:37:53.882Z,86.24
2023-04-18T16:40:22.728Z,87.68
2023-04-18T16:42:52.905Z,89.50
2023-04-18T16:45:22.239Z,88.30
2023-04-18T16:47:51.345Z,90.69
2023-04-18T16:50:20.376Z,93.69
2023-04-18T16:52:49.404Z,92.23
2023-04-18T16:55:18.254Z,92.24
2023-04-18T16:57:47.097Z,91.06
2023-04-18T17:00:17.862Z,93.91
2023-04-18T17:02:47.306Z,95.29
2023-04-18T17:05:16.293Z,92.91
2023-04-18T17:07:45.743Z,94.18
2023-04-18T17:10:14.665Z,91.92
2023-04-18T17:12:43.454Z,93.03
2023-04-18T17:15:12.516Z,88.96
2023-04-18T17:17:42.767Z,91.21
2023-04-18T17:20:12.563Z,91.54
2023-04-18T17:22:41.451Z,95.42
2023-04-18T17:25:10.861Z,97.56
2023-04-18T17:27:41.364Z,99.82
2023-04-18T17:30:11.257Z,99.05
2023-04-18T17:32:45.739Z,99.21
2023-04-18T17:35:16.409Z,99.26
2023-04-18T17:37:45.216Z,100.00
2023-04-18T17:40:14.389Z,98.89
2023-04-18T17:42:43.296Z,100.00
2023-04-18T17:45:12.233Z,100.00
2023-04-18T17:47:41.350Z,100.00
2023-04-18T17:50:10.790Z,100.00
2023-04-18T17:52:41.039Z,100.00
2023-04-18T17:55:10.404Z,100.00
2023-04-18T17:57:39.268Z,100.00
2023-04-18T18:00:11.804Z,99.61
2023-04-18T18:02:43.365Z,100.00
2023-04-18T18:05:14.414Z,100.00
2023-04-18T18:07:47.566Z,100.00
2023-04-18T18:10:20.108Z,100.00
2023-04-18T18:12:49.129Z,100.00
2023-04-18T18:15:19.070Z,100.00
2023-04-18T18:17:49.807Z,99.69
2023-04-18T18:20:19.116Z,98.01
2023-04-18T18:22:49.426Z,95.05
2023-04-18T18:25:18.244Z,99.88
2023-04-18T18:27:47.084Z,100.00
2023-04-18T18:30:16.325Z,100.00
2023-04-18T18:32:45.194Z,100.00
2023-04-18T18:35:14.185Z,99.54
2023-04-18T18:37:43.040Z,100.00
2023-04-18T18:40:13.898Z,98.91
2023-04-18T18:42:43.026Z,99.94
2023-04-18T18:45:12.066Z,100.00
2023-04-18T18:47:41.154Z,99.50
2023-04-18T18:50:11.046Z,96.35
2023-04-18T18:52:40.882Z,100.00
2023-04-18T18:55:11.076Z,100.00
2023-04-18T18:57:41.307Z,100.00
2023-04-18T19:00:12.220Z,100.00
2023-04-18T19:02:41.394Z,100.00
2023-04-18T19:05:12.628Z,100.00
2023-04-18T19:07:42.904Z,100.00
2023-04-18T19:10:11.978Z,100.00
2023-04-18T19:12:43.043Z,100.00
2023-04-18T19:15:13.018Z,100.00
2023-04-18T19:17:41.948Z,100.00
2023-04-18T19:20:11.200Z,100.00
2023-04-18T19:22:40.166Z,100.00
2023-04-18T19:25:10.589Z,100.00
2023-04-18T19:27:39.449Z,100.00
2023-04-18T19:30:11.377Z,100.00
2023-04-18T19:32:40.315Z,100.00
2023-04-18T19:35:13.545Z,100.00
2023-04-18T19:37:42.647Z,100.00
2023-04-18T19:40:12.248Z,100.00
2023-04-18T19:42:41.150Z,100.00
2023-04-18T19:45:15.174Z,100.00
2023-04-18T19:47:45.141Z,100.00
2023-04-18T19:50:14.609Z,100.00
2023-04-18T19:52:43.452Z,100.00
2023-04-18T19:55:12.346Z,100.00
2023-04-18T19:57:42.378Z,100.00
2023-04-18T20:00:14.248Z,100.00
2023-04-18T20:02:44.216Z,100.00
2023-04-18T20:05:13.406Z,100.00
2023-04-18T20:07:42.701Z,100.00
2023-04-18T20:10:11.933Z,100.00
2023-04-18T20:12:40.787Z,100.00
2023-04-18T20:15:10.373Z,100.00
2023-04-18T20:17:40.804Z,100.00
2023-04-18T20:20:11.284Z,100.00
2023-04-18T20:22:41.877Z,100.00
2023-04-18T20:25:10.820Z,100.00
2023-04-18T20:27:39.711Z,100.00
2023-04-18T20:30:09.699Z,100.00
2023-04-18T20:32:38.516Z,100.00
2023-04-18T20:35:09.710Z,100.00
2023-04-18T20:37:39.092Z,100.00
2023-04-18T20:40:10.050Z,100.00
2023-04-18T20:42:39.089Z,100.00
2023-04-18T20:45:11.009Z,100.00
2023-04-18T20:47:41.260Z,100.00
2023-04-18T20:50:14.055Z,100.00
2023-04-18T20:52:43.646Z,100.00
2023-04-18T20:55:12.709Z,100.00
2023-04-18T20:57:41.549Z,100.00
2023-04-18T21:03:04.454Z,100.00
2023-04-18T21:05:34.942Z,100.00
2023-04-18T21:08:03.756Z,100.00
2023-04-18T21:10:32.667Z,100.00
2023-04-18T21:13:02.035Z,100.00
2023-04-18T21:15:30.903Z,100.00
2023-04-18T21:17:59.890Z,100.00
2023-04-18T21:20:29.722Z,100.00
2023-04-18T21:22:59.968Z,100.00
2023-04-18T21:25:28.839Z,100.00
2023-04-18T21:27:58.194Z,100.00
2023-04-18T21:30:27.124Z,100.00
2023-04-18T21:32:56.079Z,100.00
2023-04-18T21:35:25.174Z,100.00
2023-04-18T21:37:54.102Z,100.00
2023-04-18T21:40:24.485Z,100.00
2023-04-18T21:42:53.438Z,100.00
2023-04-18T21:45:22.506Z,100.00
2023-04-18T21:47:52.489Z,100.00
2023-04-18T21:50:21.525Z,100.00
2023-04-18T21:52:50.364Z,100.00
2023-04-18T21:55:19.246Z,100.00
2023-04-18T21:57:49.460Z,100.00
2023-04-18T22:00:19.070Z,100.00
2023-04-18T22:02:48.173Z,100.00
2023-04-18T22:05:17.911Z,100.00
2023-04-18T22:07:57.452Z,100.00
2023-04-18T22:10:27.358Z,100.00
2023-04-18T22:12:58.441Z,100.00
2023-04-18T22:15:28.008Z,100.00
2023-04-18T22:17:57.838Z,100.00
2023-04-18T22:20:27.178Z,100.00
2023-04-18T22:22:56.036Z,100.00
2023-04-18T22:25:24.869Z,100.00
2023-04-18T22:27:53.711Z,100.00
2023-04-18T22:30:23.873Z,100.00
2023-04-18T22:32:52.742Z,100.00
2023-04-18T22:35:21.766Z,100.00
2023-04-18T22:37:50.662Z,100.00
2023-04-18T22:40:19.687Z,100.00
2023-04-18T22:42:48.505Z,100.00
2023-04-18T22:45:17.281Z,100.00
2023-04-18T22:47:47.669Z,100.00
2023-04-18T22:50:16.600Z,100.00
2023-04-18T22:52:45.891Z,100.00
2023-04-18T22:55:16.535Z,100.00
2023-04-18T22:57:45.356Z,100.00
2023-04-18T23:00:15.269Z,100.00
2023-04-18T23:02:44.241Z,100.00
2023-04-18T23:05:16.092Z,100.00
2023-04-18T23:07:44.979Z,100.00
2023-04-18T23:10:13.811Z,100.00
2023-04-18T23:12:42.646Z,100.00
2023-04-18T23:15:12.102Z,100.00
2023-04-18T23:17:41.048Z,100.00
2023-04-18T23:20:10.955Z,100.00
2023-04-18T23:22:41.196Z,100.00
2023-04-18T23:25:10.412Z,100.00
2023-04-18T23:27:39.261Z,100.00
2023-04-18T23:30:09.438Z,100.00
2023-04-18T23:32:38.329Z,100.00
2023-04-18T23:35:08.059Z,100.00
2023-04-18T23:37:36.922Z,100.00
2023-04-18T23:40:09.138Z,100.00
2023-04-18T23:42:38.349Z,100.00
2023-04-18T23:45:07.901Z,100.00
2023-04-18T23:47:37.234Z,100.00
2023-04-18T23:50:06.912Z,100.00
2023-04-18T23:52:35.763Z,100.00
2023-04-18T23:55:04.830Z,100.00
2023-04-18T23:57:35.684Z,100.00
